Aérodrome :
LOGIN :

S'inscrire | Disclaimer

   EN    FR    IT 

 










Légende :    VFR   VFR Marginal   IFR   IFR Intensif   IFR Très Intensif
Visi : 
Plafond : 
>= 8 km
>= 3000ft
5 à 8 km
1000 à 3000 ft
1500m à 5 km
500 à 1000 ft
800 à 1500m
200 à 500 ft
< 800m
< 200 ft
Symboles :   Orages  Brouillard  Fortes neiges  Fortes précipitations  Vent > 20 kt
SIGMETs :   Divers  Orages  Givrage  Turbulence  Onde Orograph.  Cendres Volcan.







- Altitude de l'aérodrome : 978 ft
- Code IATA : LNZ


LOWL - Linz

DERNIER METAR :
  • 240950Z 30010KT 280V350 9999 FEW060 26/13 Q1017 NOSIG

METARs EXPIRÉS :
  • 240920Z 28015KT 9999 FEW060 25/13 Q1018 NOSIG
  • 240850Z 29014KT 9999 FEW060 25/12 Q1018 NOSIG
  • 240820Z 27014KT 9999 FEW060 25/13 Q1018 NOSIG
  • 240750Z 28011KT 9999 FEW060 24/13 Q1018 NOSIG
  • 240720Z 29012KT 9999 FEW060 23/13 Q1018 NOSIG

TAF TAF LOWL
Valide du 23 à 18h jusqu'au 24 à 18h UTC


231715Z 2318/2418 29012KT 9999 FEW060 TX32/2415Z TN18/2403Z
BECMG 2318/2321 27004KT CAVOK
BECMG 2407/2409 27012KT 9999 FEW060
BECMG 2416/2418 27005KT
Pas de NOTAMs connus pour ce terrain.



MET'MAP, la Météo Aéronautique d'un coup d'oeil ! - Copyright ORBIFLY Décembre 2007 - Disclaimer

ORBIFLY MET'MAP TEAM :

Programmation & Développement : Alexandra Zaïnal
Conception & Développement : Baudouin d'Aumeries
Co-Programmation & Développement : Marc-Olivier Méhu
Soutien technique & logistique : Manuel Goepfert

Contact : metmap@orbifly.com




SOURCES & CREDITS :

   NOAA